< Typhoon 199814 1998 Season Typhoon 199816 >
Typhoon 199815 (FAITH)
General InformationTrack Information on Google MapsDetailed Wind InformationList of All Images || Disaster Info.ResourceGoogle EarthGE AnimationAtom FeedGeoJSON
Detalied Best Track (Time Zone = UTC)
Year Month Day Hour Lat. Long. Pressure (hPa) Wind (kt) Class Image Chart
1998 12 8 12 8.0 137.6 1004 0 2 Image Chart
1998 12 8 18 8.8 136.2 1004 0 2 Image Chart
1998 12 9 00 9.8 134.9 1002 0 2 Image Chart
1998 12 9 06 10.6 133.5 1000 0 2 Image Chart
1998 12 9 12 10.8 131.6 996 35 3 Image Chart
1998 12 9 18 11.0 129.9 992 40 3 Image Chart
1998 12 10 00 11.2 128.2 985 50 4 Image Chart
1998 12 10 06 11.4 126.7 980 55 4 Image Chart
1998 12 10 12 11.7 125.3 975 60 4 Image Chart
1998 12 10 18 12.0 123.4 970 65 5 Image Chart
1998 12 11 00 11.8 121.6 970 65 5 Image Chart
1998 12 11 06 11.2 120.2 970 65 5 Image Chart
1998 12 11 12 11.0 118.7 970 65 5 Image Chart
1998 12 11 18 10.9 117.3 970 65 5 Image Chart
1998 12 12 00 10.6 116.0 975 60 4 Image Chart
1998 12 12 06 10.2 114.8 980 55 4 Image Chart
1998 12 12 12 10.2 113.8 980 55 4 Image Chart
1998 12 12 18 10.3 113.0 980 55 4 Image Chart
1998 12 13 00 10.6 112.3 985 50 4 Image Chart
1998 12 13 06 11.0 111.5 985 50 4 Image Chart
1998 12 13 12 11.3 110.8 990 45 3 Image Chart
1998 12 13 18 11.8 110.0 996 35 3 Image Chart
1998 12 14 00 12.9 108.9 1000 0 2 Image Chart
1998 12 14 06 14.0 107.6 1004 0 2 Image Chart
1998 12 14 12 14.7 106.4 1008 0 2 Image Chart
Japan Meteorological Agency Best Track Data | Correction Date : 1999-01-11
< Typhoon 199814 1998 Season Typhoon 199816 >

Help